KSEA/SEA METAR and TAF weather

Enter ICAO airport designator
Station Type Date Time Source
KSEA METAR 2019/02/23 00:53 UTC NOAA

KSEA 230053Z 21009KT 10SM OVC011 04/02 A2993 RMK AO2 SLP144 T00440017


Station Type Date Time Source
KSEA Decoded METAR 2019/02/23 00:53 UTC NOAA

SEATTLE-TACOMA INTERNATIONAL AIRPORT , WA, United States (KSEA) 47-27N 122-19W 136M
Feb 22, 2019 - 07:53 PM EST / 2019.02.23 0053 UTC
Wind: from the SSW (210 degrees) at 10 MPH (9 KT):0
Visibility: 10 mile(s):0
Sky conditions: overcast
Temperature: 39.9 F (4.4 C)
Dew Point: 35.1 F (1.7 C)
Relative Humidity: 82%
Pressure (altimeter): 29.93 in. Hg (1013 hPa)
ob: KSEA 230053Z 21009KT 10SM OVC011 04/02 A2993 RMK AO2 SLP144 T00440017
cycle: 1

Station Type Date Time Source
KSEA TAF 2019/02/22 21:12 UTC NOAA

TAF
AMD KSEA 222110Z 2221/2324 18016G25KT P6SM -RA BKN015 OVC030
TEMPO 2221/2222 5SM -RA BR OVC010
FM230200 17010KT P6SM SCT025 BKN040 OVC080
FM230900 19007KT P6SM VCSH BKN025


Example: see airport list